Time;durP1;ratioP1;P1;durP2;ratioP2;P2;SDS_P1;SDS_P2;PMS_P1;PMS_P2;Temp;Humidity;BMP_temperature;BMP_pressure;BME280_temperature;BME280_humidity;BME280_pressure;Samples;Min_cycle;Max_cycle;Signal;HPM_P1;HPM_P2
2021/10/13 00:01:28;;;;;;;19.73;9.07;;;5.20;99.90;;;;;;5053662;28;20029;-69
2021/10/13 00:03:54;;;;;;;12.80;7.65;;;5.10;99.90;;;;;;5053410;28;20045;-69
2021/10/13 00:06:19;;;;;;;16.70;8.18;;;5.00;99.90;;;;;;5053900;28;20029;-69
2021/10/13 00:08:45;;;;;;;16.27;8.55;;;5.00;99.90;;;;;;5052624;28;20367;-68
2021/10/13 00:11:10;;;;;;;13.77;9.25;;;4.90;99.90;;;;;;5052683;28;20025;-69
2021/10/13 00:13:36;;;;;;;13.82;7.40;;;4.90;99.90;;;;;;5053831;28;20033;-69
2021/10/13 00:16:01;;;;;;;10.40;7.80;;;4.90;99.90;;;;;;5053791;28;20102;-69
2021/10/13 00:18:27;;;;;;;10.55;7.35;;;4.80;99.90;;;;;;5053782;28;20367;-69
2021/10/13 00:20:53;;;;;;;11.27;6.85;;;4.70;99.90;;;;;;5053752;28;20033;-69
2021/10/13 00:23:18;;;;;;;12.95;7.88;;;4.60;99.90;;;;;;5053680;28;20044;-69
2021/10/13 00:25:44;;;;;;;11.43;7.50;;;4.50;99.90;;;;;;5053712;28;20455;-69
2021/10/13 00:28:09;;;;;;;15.95;8.35;;;4.50;99.90;;;;;;5053731;28;20029;-69
2021/10/13 00:30:35;;;;;;;11.02;7.53;;;4.50;99.90;;;;;;5053651;28;20463;-69
2021/10/13 00:33:00;;;;;;;13.30;7.72;;;4.50;99.90;;;;;;5051844;28;20078;-69
2021/10/13 00:35:26;;;;;;;14.73;8.25;;;4.40;99.90;;;;;;5053623;28;20029;-69
2021/10/13 00:37:51;;;;;;;10.57;8.18;;;4.40;99.90;;;;;;5053606;28;20028;-69
2021/10/13 00:40:17;;;;;;;16.92;8.07;;;4.40;99.90;;;;;;5053322;28;20498;-69
2021/10/13 00:42:42;;;;;;;15.07;9.32;;;4.30;99.90;;;;;;5052094;28;20080;-69
2021/10/13 00:45:08;;;;;;;15.07;7.78;;;4.30;99.90;;;;;;5053412;28;20064;-69
2021/10/13 00:47:35;;;;;;;21.50;9.57;;;4.30;99.90;;;;;;5052963;28;20104;-69
2021/10/13 00:50:02;;;;;;;13.65;8.40;;;4.20;99.90;;;;;;5053851;28;20021;-69
2021/10/13 00:52:28;;;;;;;14.00;8.90;;;4.20;99.90;;;;;;5055851;28;20359;-69
2021/10/13 00:54:53;;;;;;;15.38;9.30;;;4.10;99.90;;;;;;5055787;28;20059;-69
2021/10/13 00:57:19;;;;;;;8.70;7.35;;;4.10;99.90;;;;;;5057183;28;20040;-69
2021/10/13 00:59:44;;;;;;;11.05;8.07;;;4.10;99.90;;;;;;5057170;28;20032;-69
2021/10/13 01:02:15;;;;;;;15.50;9.45;;;4.00;99.90;;;;;;5056832;28;20061;-69
2021/10/13 01:07:52;;;;;;;15.88;9.10;;;4.00;99.90;;;;;;5091912;28;20431;-69
2021/10/13 01:10:36;;;;;;;14.18;8.30;;;4.00;99.90;;;;;;5091034;28;20067;-70
2021/10/13 01:13:23;;;;;;;15.68;9.52;;;3.90;99.90;;;;;;5091535;28;20378;-69
2021/10/13 01:15:59;;;;;;;16.20;9.38;;;3.90;99.90;;;;;;5091228;28;20020;-69
2021/10/13 01:18:32;;;;;;;14.80;9.57;;;3.80;99.90;;;;;;5091153;28;20437;-69
2021/10/13 01:21:22;;;;;;;14.77;8.97;;;3.80;99.90;;;;;;5091444;28;20082;-69
2021/10/13 01:24:15;;;;;;;15.05;8.93;;;3.80;99.90;;;;;;5090680;28;20028;-69
2021/10/13 01:27:17;;;;;;;13.48;7.95;;;3.80;99.90;;;;;;5090556;28;20377;-69
2021/10/13 01:29:46;;;;;;;12.27;8.10;;;3.80;99.90;;;;;;5091223;28;20040;-69
2021/10/13 01:32:16;;;;;;;12.05;7.65;;;3.80;99.90;;;;;;5091178;28;20370;-69
2021/10/13 01:34:46;;;;;;;12.50;7.28;;;3.80;99.90;;;;;;5091117;28;20024;-69
2021/10/13 01:37:19;;;;;;;13.95;7.90;;;3.80;99.90;;;;;;5089259;28;20034;-69
2021/10/13 01:39:48;;;;;;;14.75;8.88;;;3.80;99.90;;;;;;5090767;28;20029;-69
2021/10/13 01:42:16;;;;;;;13.23;8.13;;;3.80;99.90;;;;;;5090417;28;20032;-69
2021/10/13 01:44:47;;;;;;;13.30;8.15;;;3.70;99.90;;;;;;5090630;28;20367;-69
2021/10/13 01:47:16;;;;;;;17.55;8.40;;;3.70;99.90;;;;;;5090811;28;20512;-69
2021/10/13 01:49:43;;;;;;;16.98;9.18;;;3.70;99.90;;;;;;5090541;28;20025;-69
2021/10/13 01:52:11;;;;;;;17.88;9.07;;;3.70;99.90;;;;;;5090507;28;20407;-69
2021/10/13 01:54:39;;;;;;;13.95;8.32;;;3.70;99.90;;;;;;5090754;28;20031;-69
2021/10/13 01:57:06;;;;;;;18.05;9.88;;;3.70;99.90;;;;;;5090417;28;20036;-69
2021/10/13 01:59:34;;;;;;;15.45;8.27;;;3.70;99.90;;;;;;5089653;28;20365;-69
2021/10/13 02:02:01;;;;;;;14.35;8.82;;;3.70;99.90;;;;;;5090299;28;20381;-68
2021/10/13 02:04:28;;;;;;;19.10;9.50;;;3.70;99.90;;;;;;5090617;28;20024;-69
2021/10/13 02:06:55;;;;;;;21.70;9.45;;;3.80;99.90;;;;;;5089732;28;20048;-69
2021/10/13 02:09:25;;;;;;;26.85;9.63;;;3.90;99.90;;;;;;5089353;28;20446;-69
2021/10/13 02:11:56;;;;;;;14.60;8.60;;;3.90;99.90;;;;;;5090461;28;20355;-69
2021/10/13 02:14:25;;;;;;;16.02;8.48;;;4.00;99.90;;;;;;5090391;28;20020;-69
2021/10/13 02:16:54;;;;;;;17.52;9.13;;;4.00;99.90;;;;;;5088926;28;20048;-69
2021/10/13 02:19:21;;;;;;;15.68;8.77;;;4.00;99.90;;;;;;5076564;28;20025;-69
2021/10/13 02:21:52;;;;;;;19.95;9.43;;;4.00;99.90;;;;;;5076788;28;20111;-69
2021/10/13 02:24:23;;;;;;;15.40;9.25;;;4.10;99.90;;;;;;5076717;28;20024;-69
2021/10/13 02:26:56;;;;;;;17.48;8.30;;;4.00;99.90;;;;;;5076611;28;20052;-69
2021/10/13 02:29:22;;;;;;;18.42;9.52;;;4.10;99.90;;;;;;5076649;28;20017;-69
2021/10/13 02:31:47;;;;;;;18.30;9.45;;;4.00;99.90;;;;;;5076283;28;20386;-69
2021/10/13 02:34:14;;;;;;;18.13;9.98;;;4.00;99.90;;;;;;5076253;28;20033;-69
2021/10/13 02:36:41;;;;;;;27.83;10.23;;;4.10;99.90;;;;;;5075928;28;20035;-69
2021/10/13 02:39:07;;;;;;;31.88;11.90;;;4.10;99.90;;;;;;5076435;28;20465;-69
2021/10/13 02:41:34;;;;;;;27.38;11.70;;;4.20;99.90;;;;;;5076151;28;20060;-69
2021/10/13 02:44:03;;;;;;;26.10;11.48;;;4.40;99.90;;;;;;5076052;28;20103;-69
2021/10/13 02:46:33;;;;;;;24.83;12.18;;;4.50;99.90;;;;;;5076218;28;20035;-69
2021/10/13 02:49:06;;;;;;;26.10;12.75;;;4.50;99.90;;;;;;5075954;28;20028;-69
2021/10/13 02:51:58;;;;;;;33.17;14.57;;;4.60;99.90;;;;;;5075965;28;20024;-69
2021/10/13 02:54:32;;;;;;;33.28;14.90;;;4.70;99.90;;;;;;5074883;28;20024;-69
2021/10/13 02:57:01;;;;;;;33.50;14.85;;;4.80;99.90;;;;;;5076110;28;20112;-69
2021/10/13 02:59:48;;;;;;;36.45;15.43;;;4.80;99.90;;;;;;5076081;28;20483;-69
2021/10/13 03:02:22;;;;;;;36.75;15.82;;;4.90;99.90;;;;;;5076018;28;20074;-69
2021/10/13 03:04:53;;;;;;;40.63;18.10;;;5.00;99.90;;;;;;5074847;28;20424;-69
2021/10/13 03:07:26;;;;;;;45.15;18.17;;;5.00;99.90;;;;;;5075132;28;20055;-69
2021/10/13 03:09:54;;;;;;;;;;;5.10;99.90;;;;;;5076051;28;20370;-69
2021/10/13 03:12:21;;;;;;;42.00;18.50;;;5.00;99.90;;;;;;5075845;28;20273;-68
2021/10/13 03:14:50;;;;;;;42.85;18.55;;;5.00;99.90;;;;;;5075505;28;20021;-69
2021/10/13 03:17:18;;;;;;;33.50;16.20;;;4.90;99.90;;;;;;5075701;28;20025;-69
2021/10/13 03:19:45;;;;;;;25.73;13.68;;;4.80;99.90;;;;;;5075674;28;20052;-69
2021/10/13 03:22:11;;;;;;;30.75;14.68;;;4.70;99.90;;;;;;5075293;28;20470;-69
2021/10/13 03:24:39;;;;;;;28.10;13.95;;;4.60;99.90;;;;;;5075517;28;20107;-69
2021/10/13 03:27:05;;;;;;;35.47;15.18;;;4.50;99.90;;;;;;5075148;28;20027;-69
2021/10/13 03:29:31;;;;;;;30.35;14.98;;;4.50;99.90;;;;;;5074476;28;20409;-69
2021/10/13 03:31:56;;;;;;;35.67;15.40;;;4.40;99.90;;;;;;5075069;28;20386;-69
2021/10/13 03:34:22;;;;;;;27.23;13.93;;;4.40;99.90;;;;;;5075309;28;20028;-69
2021/10/13 03:36:49;;;;;;;22.17;12.65;;;4.30;99.90;;;;;;5075009;28;20077;-69
2021/10/13 03:39:17;;;;;;;30.00;14.95;;;4.30;99.90;;;;;;5075263;28;20020;-69
2021/10/13 03:41:43;;;;;;;29.08;14.43;;;4.20;99.90;;;;;;5075218;28;20082;-69
2021/10/13 03:44:09;;;;;;;26.05;12.68;;;4.20;99.90;;;;;;5074859;28;20099;-69
2021/10/13 03:46:35;;;;;;;22.27;12.55;;;4.10;99.90;;;;;;5075024;28;20116;-69
2021/10/13 03:49:01;;;;;;;23.33;11.90;;;4.10;99.90;;;;;;5075060;28;20024;-69
2021/10/13 03:51:27;;;;;;;20.08;11.98;;;4.00;99.90;;;;;;5075047;28;20096;-69
2021/10/13 03:53:52;;;;;;;25.00;13.15;;;4.00;99.90;;;;;;5075008;28;20017;-69
2021/10/13 03:56:19;;;;;;;21.75;12.13;;;4.00;99.90;;;;;;5074947;28;20035;-69
2021/10/13 03:58:45;;;;;;;22.70;12.57;;;4.00;99.90;;;;;;5073182;28;20424;-69
2021/10/13 04:01:12;;;;;;;20.63;12.18;;;4.00;99.90;;;;;;5074846;28;20361;-69
2021/10/13 04:03:38;;;;;;;21.40;12.25;;;3.90;99.90;;;;;;5074840;28;20021;-69
2021/10/13 04:06:04;;;;;;;20.15;11.57;;;3.90;99.90;;;;;;5056069;28;20667;-69
2021/10/13 04:08:30;;;;;;;24.52;12.93;;;3.90;99.90;;;;;;5074405;28;20020;-69
2021/10/13 04:10:55;;;;;;;26.25;13.00;;;3.90;99.90;;;;;;5074425;28;20024;-69
2021/10/13 04:13:21;;;;;;;23.58;11.98;;;3.90;99.90;;;;;;5074634;28;20397;-69
2021/10/13 04:15:46;;;;;;;23.33;11.73;;;3.90;99.90;;;;;;5056150;28;20024;-69
2021/10/13 04:18:12;;;;;;;22.27;12.55;;;3.90;99.90;;;;;;5073099;28;20466;-69
2021/10/13 04:20:38;;;;;;;27.63;12.75;;;3.90;99.90;;;;;;5074513;28;20535;-69
2021/10/13 04:23:03;;;;;;;21.13;11.45;;;3.80;99.90;;;;;;5074197;28;20025;-69
2021/10/13 04:25:29;;;;;;;23.92;12.50;;;3.80;99.90;;;;;;5074064;28;20380;-69
2021/10/13 04:27:54;;;;;;;31.17;13.57;;;3.80;99.90;;;;;;5074410;28;20029;-68
2021/10/13 04:30:20;;;;;;;31.33;13.35;;;3.80;99.90;;;;;;5074337;28;20462;-69
2021/10/13 04:32:46;;;;;;;26.95;12.73;;;3.80;99.90;;;;;;5074015;28;20056;-69
2021/10/13 04:35:11;;;;;;;20.42;11.55;;;3.80;99.90;;;;;;5073682;28;20062;-69
2021/10/13 04:37:39;;;;;;;21.17;12.13;;;3.80;99.90;;;;;;5074260;28;20036;-69
2021/10/13 04:40:06;;;;;;;23.83;12.65;;;3.70;99.90;;;;;;5073713;28;20024;-69
2021/10/13 04:42:32;;;;;;;27.05;13.73;;;3.70;99.90;;;;;;5072454;28;20039;-69
2021/10/13 04:44:58;;;;;;;19.63;11.70;;;3.70;99.90;;;;;;5073864;28;20036;-69
2021/10/13 04:47:24;;;;;;;26.92;13.60;;;3.60;99.90;;;;;;5074047;28;20070;-69
2021/10/13 04:49:49;;;;;;;28.20;12.93;;;3.70;99.90;;;;;;5074095;28;20370;-69
2021/10/13 04:52:15;;;;;;;20.38;11.70;;;3.70;99.90;;;;;;5056114;28;20458;-69
2021/10/13 04:54:41;;;;;;;25.05;12.73;;;3.70;99.90;;;;;;5074058;28;20039;-69
2021/10/13 04:57:07;;;;;;;22.05;12.00;;;3.80;99.90;;;;;;5072602;28;20029;-69
2021/10/13 04:59:33;;;;;;;24.20;12.55;;;3.80;99.90;;;;;;5074343;28;20055;-69
2021/10/13 05:01:58;;;;;;;26.48;12.93;;;3.90;99.90;;;;;;5055524;28;20032;-69
2021/10/13 05:04:24;;;;;;;35.90;15.90;;;3.90;99.90;;;;;;5073954;28;20033;-69
2021/10/13 05:06:49;;;;;;;32.53;14.45;;;4.00;99.90;;;;;;5073309;28;20050;-69
2021/10/13 05:09:15;;;;;;;30.08;14.48;;;4.00;99.90;;;;;;5072789;28;20466;-69
2021/10/13 05:11:41;;;;;;;33.03;15.68;;;4.10;99.90;;;;;;5073599;28;20027;-69
2021/10/13 05:14:07;;;;;;;30.85;15.48;;;4.20;99.90;;;;;;5073863;28;20016;-69
2021/10/13 05:16:33;;;;;;;34.78;16.55;;;4.20;99.90;;;;;;5073303;28;20035;-69
2021/10/13 05:18:58;;;;;;;38.05;16.58;;;4.30;99.90;;;;;;5073792;28;20025;-69
2021/10/13 05:21:24;;;;;;;45.55;17.58;;;4.30;99.90;;;;;;5073799;28;20032;-69
2021/10/13 05:23:49;;;;;;;45.70;18.02;;;4.40;99.90;;;;;;5073497;28;20111;-69
2021/10/13 05:26:15;;;;;;;40.85;18.50;;;4.50;99.90;;;;;;5073403;28;20130;-69
2021/10/13 05:28:40;;;;;;;34.15;16.70;;;4.60;99.90;;;;;;5073425;28;20443;-69
2021/10/13 05:31:06;;;;;;;34.63;17.52;;;4.70;99.90;;;;;;5073667;28;20056;-69
2021/10/13 05:33:31;;;;;;;43.03;18.65;;;4.80;99.90;;;;;;5073673;28;20111;-69
2021/10/13 05:35:57;;;;;;;38.55;18.45;;;4.90;99.90;;;;;;5073665;28;20103;-69
2021/10/13 05:38:22;;;;;;;41.55;19.95;;;5.00;99.90;;;;;;5073349;28;20025;-69
2021/10/13 05:40:49;;;;;;;44.35;21.05;;;5.10;99.90;;;;;;5073606;28;20032;-69
2021/10/13 05:43:14;;;;;;;44.42;20.88;;;5.20;99.90;;;;;;5073298;28;20443;-69
2021/10/13 05:45:40;;;;;;;55.30;24.15;;;5.30;99.90;;;;;;5073462;28;20103;-69
2021/10/13 05:48:05;;;;;;;62.97;25.35;;;5.40;99.90;;;;;;5073007;28;20020;-69
2021/10/13 05:50:31;;;;;;;58.72;27.33;;;5.70;99.90;;;;;;5072312;28;20025;-69
2021/10/13 05:52:56;;;;;;;65.45;29.60;;;5.80;99.90;;;;;;5074530;28;20112;-69
2021/10/13 05:55:22;;;;;;;67.22;29.83;;;5.90;99.90;;;;;;5076907;28;20029;-69
2021/10/13 05:57:47;;;;;;;68.28;30.60;;;5.90;99.90;;;;;;5077161;28;20040;-69
2021/10/13 06:00:14;;;;;;;79.70;31.90;;;5.90;99.90;;;;;;5077102;28;20481;-69
2021/10/13 06:02:39;;;;;;;70.80;32.10;;;6.00;99.90;;;;;;5077015;28;20035;-69
2021/10/13 06:05:06;;;;;;;80.70;34.08;;;6.00;99.90;;;;;;5077066;28;20021;-69
2021/10/13 06:07:32;;;;;;;85.07;34.38;;;6.10;99.90;;;;;;5076260;28;20037;-69
2021/10/13 06:09:57;;;;;;;80.40;36.88;;;6.10;99.90;;;;;;5076981;28;20024;-69
2021/10/13 06:12:23;;;;;;;77.85;33.30;;;6.20;99.90;;;;;;5076959;28;20031;-69
2021/10/13 06:14:49;;;;;;;83.35;33.58;;;6.20;99.90;;;;;;5075745;28;20484;-69
2021/10/13 06:17:15;;;;;;;77.43;33.50;;;6.30;99.90;;;;;;5076812;28;20046;-69
2021/10/13 06:19:41;;;;;;;75.43;33.60;;;6.30;99.90;;;;;;5075058;28;20059;-69
2021/10/13 06:22:06;;;;;;;79.80;32.72;;;6.30;99.90;;;;;;5076477;28;20052;-69
2021/10/13 06:24:32;;;;;;;72.38;31.05;;;6.30;99.90;;;;;;5074849;28;20074;-69
2021/10/13 06:26:58;;;;;;;71.13;30.55;;;6.40;99.90;;;;;;5074772;28;20032;-69
2021/10/13 06:29:24;;;;;;;66.10;28.77;;;6.40;99.90;;;;;;5076275;28;20021;-68
2021/10/13 06:31:49;;;;;;;61.63;27.75;;;6.40;99.90;;;;;;5076062;28;20453;-69
2021/10/13 06:34:15;;;;;;;60.15;28.15;;;6.50;99.90;;;;;;5076200;28;20036;-69
2021/10/13 06:36:42;;;;;;;69.43;29.27;;;6.50;99.90;;;;;;5076297;28;20029;-69
2021/10/13 06:39:07;;;;;;;70.47;29.33;;;6.50;99.90;;;;;;5075790;28;20024;-69
2021/10/13 06:41:33;;;;;;;56.10;26.23;;;6.50;99.90;;;;;;5074410;28;20158;-69
2021/10/13 06:43:58;;;;;;;54.30;26.63;;;6.60;99.90;;;;;;5074151;28;20042;-69
2021/10/13 06:46:24;;;;;;;61.67;27.25;;;6.70;99.90;;;;;;5069774;28;20056;-69
2021/10/13 06:48:50;;;;;;;56.55;24.67;;;6.70;99.90;;;;;;5070436;28;20492;-68
2021/10/13 06:51:15;;;;;;;62.05;27.80;;;6.80;99.90;;;;;;5075346;28;20116;-68
2021/10/13 06:53:46;;;;;;;57.40;27.00;;;7.10;99.90;;;;;;5069500;28;20032;-69
2021/10/13 06:56:12;;;;;;;53.50;25.15;;;7.60;99.90;;;;;;5055339;28;20025;-69
2021/10/13 06:58:37;;;;;;;41.20;20.30;;;8.10;99.90;;;;;;5060272;28;20086;-69
2021/10/13 07:01:03;;;;;;;34.63;17.60;;;8.50;99.90;;;;;;5074084;28;20024;-70
2021/10/13 07:03:28;;;;;;;44.97;23.30;;;8.30;99.90;;;;;;5060950;28;20378;-71
2021/10/13 07:05:54;;;;;;;26.58;14.15;;;8.50;99.90;;;;;;5065881;28;20040;-70
2021/10/13 07:08:19;;;;;;;29.60;12.82;;;8.60;99.90;;;;;;5058247;28;20494;-70
2021/10/13 07:10:45;;;;;;;26.98;13.70;;;8.50;99.90;;;;;;5073286;28;20373;-70
2021/10/13 07:13:10;;;;;;;22.70;12.98;;;8.30;99.90;;;;;;5060985;28;20028;-70
2021/10/13 07:15:36;;;;;;;25.20;13.65;;;8.20;99.90;;;;;;5059912;28;20032;-69
2021/10/13 07:18:02;;;;;;;24.63;14.30;;;8.20;99.90;;;;;;5060349;28;20032;-70
2021/10/13 07:20:28;;;;;;;26.73;15.90;;;8.30;99.90;;;;;;5074916;28;20021;-70
2021/10/13 07:22:54;;;;;;;27.00;14.07;;;8.60;99.90;;;;;;5075087;28;20020;-70
2021/10/13 07:25:23;;;;;;;29.85;13.68;;;9.10;99.90;;;;;;5074080;28;20012;-70
2021/10/13 07:27:49;;;;;;;18.85;11.10;;;9.40;99.90;;;;;;5074802;28;20027;-70
2021/10/13 07:30:18;;;;;;;23.50;12.27;;;9.20;99.90;;;;;;5073076;28;20017;-70
2021/10/13 07:32:43;;;;;;;28.58;13.40;;;9.00;99.90;;;;;;5075005;28;20021;-70
2021/10/13 07:35:09;;;;;;;29.63;15.68;;;8.90;99.90;;;;;;5071034;28;20051;-70
2021/10/13 07:37:35;;;;;;;27.27;16.25;;;8.60;99.90;;;;;;5054481;28;20398;-70
2021/10/13 07:40:03;;;;;;;36.15;17.63;;;8.40;99.90;;;;;;5056096;28;20370;-70
2021/10/13 07:42:29;;;;;;;40.72;20.52;;;8.30;99.90;;;;;;5072901;28;20030;-70
2021/10/13 07:44:54;;;;;;;33.20;20.45;;;8.30;99.90;;;;;;5073962;28;20024;-70
2021/10/13 07:47:20;;;;;;;35.17;20.00;;;8.30;99.90;;;;;;5053143;28;20033;-69
2021/10/13 07:49:45;;;;;;;38.35;21.75;;;8.20;99.90;;;;;;5056396;28;20139;-69
2021/10/13 07:52:11;;;;;;;43.03;22.92;;;8.20;99.90;;;;;;5055452;28;20024;-69
2021/10/13 07:54:37;;;;;;;39.17;23.02;;;8.30;99.90;;;;;;5054509;28;20080;-69
2021/10/13 07:57:03;;;;;;;44.10;21.40;;;8.30;99.90;;;;;;5056852;28;20142;-69
2021/10/13 07:59:31;;;;;;;52.80;24.17;;;8.40;99.90;;;;;;5074417;28;20108;-70
2021/10/13 08:01:56;;;;;;;43.72;21.95;;;8.50;99.90;;;;;;5070759;28;20021;-69
2021/10/13 08:04:22;;;;;;;46.00;23.48;;;8.50;99.90;;;;;;5054015;28;20116;-69
2021/10/13 08:06:49;;;;;;;44.53;23.90;;;8.50;99.90;;;;;;5069074;28;20410;-69
2021/10/13 08:09:14;;;;;;;48.63;25.20;;;8.60;99.90;;;;;;5054412;28;20021;-70
2021/10/13 08:11:40;;;;;;;51.83;24.42;;;8.70;99.90;;;;;;5074143;28;20020;-69
2021/10/13 08:14:05;;;;;;;50.83;26.55;;;8.70;99.90;;;;;;5072689;28;20020;-70
2021/10/13 08:16:31;;;;;;;49.42;27.35;;;8.80;99.90;;;;;;5070576;28;20039;-69
2021/10/13 08:18:57;;;;;;;46.13;26.13;;;8.70;99.90;;;;;;5073953;28;20020;-69
2021/10/13 08:21:22;;;;;;;48.40;25.70;;;8.70;99.90;;;;;;5056057;28;20040;-69
2021/10/13 08:23:50;;;;;;;53.58;25.85;;;8.60;99.90;;;;;;5055353;28;20033;-69
2021/10/13 08:26:15;;;;;;;48.33;27.48;;;8.60;99.90;;;;;;5053730;28;20040;-69
2021/10/13 08:28:43;;;;;;;47.38;26.30;;;8.70;99.90;;;;;;5067458;28;20020;-70
2021/10/13 08:31:09;;;;;;;42.00;24.50;;;8.60;99.90;;;;;;5073717;28;20100;-70
2021/10/13 08:33:35;;;;;;;46.92;24.75;;;8.70;99.90;;;;;;5071729;28;20021;-70
2021/10/13 08:36:01;;;;;;;44.63;25.17;;;8.70;99.90;;;;;;5069402;28;20085;-70
2021/10/13 08:38:26;;;;;;;41.28;25.13;;;8.90;99.90;;;;;;5072135;28;20028;-70
2021/10/13 08:40:52;;;;;;;44.65;25.00;;;9.00;99.90;;;;;;5063199;28;20057;-70
2021/10/13 08:43:17;;;;;;;43.67;22.05;;;9.30;99.90;;;;;;5071120;28;20359;-71
2021/10/13 08:45:43;;;;;;;40.00;21.65;;;9.40;99.90;;;;;;5066280;28;22314;-70
2021/10/13 08:48:08;;;;;;;37.97;20.98;;;9.50;99.90;;;;;;5053383;28;20086;-70
2021/10/13 08:50:37;;;;;;;35.60;21.27;;;9.50;99.90;;;;;;5054432;28;20031;-71
2021/10/13 08:53:06;;;;;;;32.42;20.17;;;9.70;99.90;;;;;;5053240;28;20035;-70
2021/10/13 08:55:33;;;;;;;30.38;18.52;;;9.70;99.90;;;;;;5053833;28;20072;-70
2021/10/13 08:58:09;;;;;;;32.80;18.15;;;9.70;99.90;;;;;;5053838;28;20032;-71
2021/10/13 09:00:35;;;;;;;30.85;17.70;;;9.80;99.90;;;;;;5070916;28;20077;-71
2021/10/13 09:03:01;;;;;;;29.77;15.15;;;10.10;99.90;;;;;;5070405;28;20025;-71
2021/10/13 09:05:27;;;;;;;26.25;15.13;;;10.20;99.90;;;;;;5060581;28;20021;-71
2021/10/13 09:07:55;;;;;;;26.85;13.15;;;10.30;99.90;;;;;;5067724;28;20020;-71
2021/10/13 09:10:36;;;;;;;23.55;10.52;;;10.50;99.90;;;;;;5058933;28;20032;-70
2021/10/13 09:13:04;;;;;;;16.77;10.43;;;10.80;99.90;;;;;;5073304;28;20049;-71
2021/10/13 09:15:31;;;;;;;19.10;9.73;;;11.00;99.90;;;;;;5052629;28;20065;-71
2021/10/13 09:18:01;;;;;;;18.75;8.45;;;11.30;99.90;;;;;;5054691;28;20040;-71
2021/10/13 09:20:29;;;;;;;12.23;6.65;;;11.40;99.90;;;;;;5059182;28;20441;-71
2021/10/13 09:23:06;;;;;;;15.32;6.68;;;11.70;99.90;;;;;;5072331;28;20138;-71
2021/10/13 09:25:33;;;;;;;12.85;6.03;;;11.30;99.90;;;;;;5069090;28;20044;-71
2021/10/13 09:28:00;;;;;;;14.95;6.07;;;11.30;99.90;;;;;;5057129;28;20032;-71
2021/10/13 09:30:31;;;;;;;11.68;5.70;;;11.00;99.90;;;;;;5058525;28;20025;-71
2021/10/13 09:33:10;;;;;;;12.80;6.05;;;11.10;99.90;;;;;;5057573;28;20017;-71
2021/10/13 09:35:41;;;;;;;19.02;6.93;;;11.10;99.90;;;;;;5057291;28;20021;-71
2021/10/13 09:38:06;;;;;;;13.40;6.97;;;11.00;99.90;;;;;;5058117;28;20025;-71
2021/10/13 09:40:34;;;;;;;17.08;7.30;;;11.10;99.90;;;;;;5063604;28;20033;-71
2021/10/13 09:43:00;;;;;;;16.15;6.50;;;11.60;99.90;;;;;;5067189;28;20017;-71
2021/10/13 09:45:28;;;;;;;12.48;6.57;;;11.70;99.90;;;;;;5073629;28;20020;-69
2021/10/13 09:47:59;;;;;;;14.30;6.38;;;11.80;99.90;;;;;;5074099;28;20040;-71
2021/10/13 09:50:42;;;;;;;12.63;5.38;;;11.80;99.90;;;;;;5069998;28;20025;-71
2021/10/13 09:53:27;;;;;;;15.70;7.03;;;11.70;99.90;;;;;;5056446;28;20028;-71
2021/10/13 09:55:53;;;;;;;18.25;6.70;;;12.00;99.90;;;;;;5064921;28;20040;-71
2021/10/13 09:58:24;;;;;;;12.52;6.40;;;12.20;99.90;;;;;;5076749;28;20386;-71
2021/10/13 10:00:50;;;;;;;14.68;6.07;;;11.90;99.90;;;;;;5051847;28;20386;-71
2021/10/13 10:03:16;;;;;;;14.32;6.40;;;11.80;99.90;;;;;;5056507;28;20017;-71
2021/10/13 10:05:42;;;;;;;13.40;6.47;;;12.00;99.90;;;;;;5061563;28;20106;-71
2021/10/13 10:08:13;;;;;;;14.18;6.05;;;11.90;99.90;;;;;;5076384;28;20060;-71
2021/10/13 10:11:00;;;;;;;21.02;6.95;;;11.90;99.90;;;;;;5073516;28;20474;-71
2021/10/13 10:13:35;;;;;;;16.88;5.63;;;11.90;99.90;;;;;;5076394;28;20027;-71
2021/10/13 10:16:01;;;;;;;13.18;5.78;;;12.30;99.90;;;;;;5057885;28;20029;-71
2021/10/13 10:18:31;;;;;;;9.05;4.10;;;12.70;99.90;;;;;;5055869;28;20021;-71
2021/10/13 10:21:28;;;;;;;12.60;4.95;;;13.60;99.90;;;;;;5073375;28;20029;-71
2021/10/13 10:23:56;;;;;;;10.07;3.95;;;13.80;99.90;;;;;;5075719;28;20020;-70
2021/10/13 10:26:30;;;;;;;9.60;3.58;;;13.70;99.90;;;;;;5073911;28;20031;-72
2021/10/13 10:28:58;;;;;;;8.68;3.50;;;13.60;99.90;;;;;;5076227;28;20420;-71
2021/10/13 10:36:46;;;;;;;10.20;3.92;;;13.30;99.90;;;;;;5111583;27;20659;-71
2021/10/13 10:39:15;;;;;;;5.93;2.90;;;13.20;99.90;;;;;;5110552;28;20024;-71
2021/10/13 10:41:53;;;;;;;6.65;3.65;;;13.40;99.90;;;;;;5110943;28;20024;-71
2021/10/13 10:47:16;;;;;;;12.55;5.72;;;13.80;99.90;;;;;;5070673;28;20379;-69
2021/10/13 10:49:50;;;;;;;14.55;3.53;;;13.70;99.90;;;;;;5063252;28;20087;-69
2021/10/13 10:52:22;;;;;;;9.00;3.10;;;14.40;99.90;;;;;;5050798;28;20022;-69
2021/10/13 10:54:55;;;;;;;7.32;3.45;;;14.70;99.90;;;;;;5050245;28;20068;-69
2021/10/13 10:57:44;;;;;;;11.38;3.25;;;15.40;99.90;;;;;;5050489;28;20026;-71
2021/10/13 11:00:30;;;;;;;7.55;3.10;;;15.60;99.90;;;;;;5050740;28;20033;-69
2021/10/13 11:03:16;;;;;;;6.20;2.75;;;16.40;99.90;;;;;;5050103;28;20037;-71
2021/10/13 11:05:42;;;;;;;6.50;3.03;;;15.60;99.90;;;;;;5050115;28;20075;-69
2021/10/13 11:08:10;;;;;;;6.03;2.80;;;15.30;99.90;;;;;;5050541;28;20029;-69
2021/10/13 11:10:35;;;;;;;5.30;2.58;;;14.80;99.90;;;;;;5069174;28;20033;-71
2021/10/13 11:13:01;;;;;;;9.80;3.33;;;14.70;99.90;;;;;;5069318;28;20025;-71
2021/10/13 11:15:29;;;;;;;8.63;2.40;;;14.60;99.90;;;;;;5055831;28;20025;-69
2021/10/13 11:17:55;;;;;;;4.82;2.28;;;14.50;99.90;;;;;;5047857;28;20033;-69
2021/10/13 11:20:23;;;;;;;8.38;1.95;;;14.60;99.90;;;;;;5077899;28;20052;-71
2021/10/13 11:22:58;;;;;;;7.32;2.00;;;15.00;99.90;;;;;;5048784;28;20057;-71
2021/10/13 11:25:24;;;;;;;4.65;1.83;;;14.90;99.90;;;;;;5053648;28;20428;-71
2021/10/13 11:28:11;;;;;;;8.43;2.20;;;14.60;99.90;;;;;;5069776;28;20389;-69
2021/10/13 11:30:43;;;;;;;7.25;2.35;;;14.20;99.90;;;;;;5050666;28;20037;-71
2021/10/13 11:33:11;;;;;;;5.97;2.92;;;14.20;99.90;;;;;;5050064;28;20032;-71
2021/10/13 11:35:37;;;;;;;9.15;2.50;;;14.10;99.90;;;;;;5050934;28;20021;-71
2021/10/13 11:38:05;;;;;;;9.15;2.45;;;14.10;99.90;;;;;;5050145;28;20029;-71
2021/10/13 11:40:31;;;;;;;7.28;2.45;;;14.20;99.90;;;;;;5065909;28;20024;-70
2021/10/13 11:42:59;;;;;;;5.38;2.15;;;14.10;99.90;;;;;;5068423;28;20029;-70
2021/10/13 11:45:25;;;;;;;6.72;3.00;;;14.00;99.90;;;;;;5054243;28;20108;-70
2021/10/13 11:47:51;;;;;;;8.43;3.17;;;14.00;99.90;;;;;;5069197;28;20032;-70
2021/10/13 11:50:19;;;;;;;7.10;2.90;;;13.90;99.90;;;;;;5069624;28;20032;-71
2021/10/13 11:52:53;;;;;;;8.65;2.90;;;13.70;99.90;;;;;;5067615;28;20520;-70
2021/10/13 11:55:20;;;;;;;8.32;3.03;;;13.60;99.90;;;;;;5054123;28;20556;-70
2021/10/13 11:57:58;;;;;;;5.85;3.00;;;13.20;99.90;;;;;;5041893;28;20113;-70
2021/10/13 12:00:27;;;;;;;7.35;2.53;;;13.20;99.90;;;;;;5034750;28;20028;-70
2021/10/13 12:03:04;;;;;;;7.75;2.97;;;13.40;99.90;;;;;;5050861;28;20055;-71
2021/10/13 12:05:34;;;;;;;8.40;3.15;;;13.60;99.90;;;;;;5040368;28;20022;-70
2021/10/13 12:08:07;;;;;;;12.25;3.13;;;13.60;99.90;;;;;;5050850;28;20025;-71
2021/10/13 12:10:38;;;;;;;9.20;3.63;;;13.60;99.90;;;;;;5055041;28;20116;-70
2021/10/13 12:13:07;;;;;;;7.13;3.20;;;13.70;99.90;;;;;;5055315;28;20074;-70
2021/10/13 12:15:33;;;;;;;14.18;3.95;;;13.70;99.90;;;;;;5054172;28;20032;-70
2021/10/13 12:18:20;;;;;;;8.73;3.58;;;13.90;99.90;;;;;;5055630;28;20104;-70
2021/10/13 12:20:48;;;;;;;6.53;3.15;;;14.00;99.90;;;;;;5040747;28;20036;-70
2021/10/13 12:23:18;;;;;;;8.07;4.25;;;14.10;99.90;;;;;;5047739;28;20517;-70
2021/10/13 12:25:44;;;;;;;10.70;3.28;;;14.40;99.90;;;;;;5037309;28;20054;-70
2021/10/13 12:28:17;;;;;;;7.18;3.00;;;14.30;99.90;;;;;;5044145;28;20139;-70
2021/10/13 12:30:44;;;;;;;8.63;2.88;;;14.20;99.90;;;;;;5036885;28;20375;-70
2021/10/13 12:33:15;;;;;;;9.95;3.33;;;14.50;99.90;;;;;;5038621;28;20032;-70
2021/10/13 12:35:41;;;;;;;8.77;2.47;;;14.50;99.90;;;;;;5053508;28;20060;-70
2021/10/13 12:38:16;;;;;;;9.00;2.42;;;14.70;99.90;;;;;;5054200;28;20065;-70
2021/10/13 12:40:59;;;;;;;6.95;1.83;;;14.60;99.90;;;;;;5055324;28;20035;-70
2021/10/13 12:43:25;;;;;;;;;;;14.20;99.90;;;;;;5054894;28;20021;-70
2021/10/13 12:45:50;;;;;;;6.13;1.88;;;14.00;99.90;;;;;;5054350;28;20484;-70
2021/10/13 12:48:21;;;;;;;9.30;1.75;;;13.90;99.90;;;;;;5052004;28;20226;-70
2021/10/13 12:51:08;;;;;;;9.52;1.92;;;13.80;99.90;;;;;;5055520;28;20025;-70
2021/10/13 12:53:39;;;;;;;6.15;1.60;;;13.90;99.90;;;;;;5052966;28;20032;-70
2021/10/13 12:56:06;;;;;;;3.72;1.67;;;13.90;99.90;;;;;;5055649;28;20078;-70
2021/10/13 12:58:33;;;;;;;8.38;2.03;;;14.00;99.90;;;;;;5053156;28;20033;-70